sensor_id;sensor_type;location;lat;lon;timestamp;temperature;humidity
1165;DHT22;571;50.930;6.926;2024-03-17T03:46:49;8.00;99.90
1165;DHT22;571;50.930;6.926;2024-03-17T03:49:18;7.90;99.90
1165;DHT22;571;50.930;6.926;2024-03-17T03:51:45;7.90;99.90
1165;DHT22;571;50.930;6.926;2024-03-17T03:54:11;7.80;99.90
1165;DHT22;571;50.930;6.926;2024-03-17T03:56:38;7.80;99.90
1165;DHT22;571;50.930;6.926;2024-03-17T03:59:05;7.80;99.90
1165;DHT22;571;50.930;6.926;2024-03-17T04:01:32;7.80;99.90
1165;DHT22;571;50.930;6.926;2024-03-17T04:04:00;7.70;99.90
1165;DHT22;571;50.930;6.926;2024-03-17T04:06:28;7.80;99.90
1165;DHT22;571;50.930;6.926;2024-03-17T04:08:55;7.80;99.90
1165;DHT22;571;50.930;6.926;2024-03-17T04:11:22;7.80;99.90
1165;DHT22;571;50.930;6.926;2024-03-17T04:13:49;7.80;99.90
1165;DHT22;571;50.930;6.926;2024-03-17T04:16:16;7.80;99.90
1165;DHT22;571;50.930;6.926;2024-03-17T04:18:43;7.80;99.90
1165;DHT22;571;50.930;6.926;2024-03-17T04:21:11;7.80;99.90
1165;DHT22;571;50.930;6.926;2024-03-17T04:23:38;7.80;99.90
1165;DHT22;571;50.930;6.926;2024-03-17T04:26:05;7.80;99.90
1165;DHT22;571;50.930;6.926;2024-03-17T04:28:33;7.80;99.90
1165;DHT22;571;50.930;6.926;2024-03-17T04:31:04;7.80;99.90
1165;DHT22;571;50.930;6.926;2024-03-17T04:33:32;7.80;99.90
1165;DHT22;571;50.930;6.926;2024-03-17T04:35:59;7.80;99.90
1165;DHT22;571;50.930;6.926;2024-03-17T04:38:27;7.80;99.90
1165;DHT22;571;50.930;6.926;2024-03-17T04:40:54;7.80;99.90
1165;DHT22;571;50.930;6.926;2024-03-17T04:43:30;7.80;99.90
1165;DHT22;571;50.930;6.926;2024-03-17T04:46:01;7.80;99.90
1165;DHT22;571;50.930;6.926;2024-03-17T04:48:30;7.80;99.90
1165;DHT22;571;50.930;6.926;2024-03-17T04:50:57;7.90;99.90
1165;DHT22;571;50.930;6.926;2024-03-17T04:53:24;7.90;99.90
1165;DHT22;571;50.930;6.926;2024-03-17T04:56:00;7.90;99.90
1165;DHT22;571;50.930;6.926;2024-03-17T04:58:27;7.90;99.90
1165;DHT22;571;50.930;6.926;2024-03-17T05:00:54;7.90;99.90
1165;DHT22;571;50.930;6.926;2024-03-17T05:03:20;7.90;99.90
1165;DHT22;571;50.930;6.926;2024-03-17T05:05:47;7.90;99.90
1165;DHT22;571;50.930;6.926;2024-03-17T05:08:14;7.90;99.90
1165;DHT22;571;50.930;6.926;2024-03-17T05:10:41;7.90;99.90
1165;DHT22;571;50.930;6.926;2024-03-17T05:13:09;7.90;99.90
1165;DHT22;571;50.930;6.926;2024-03-17T05:15:37;7.90;99.90
1165;DHT22;571;50.930;6.926;2024-03-17T05:18:04;7.90;99.90
1165;DHT22;571;50.930;6.926;2024-03-17T05:20:31;7.90;99.90
1165;DHT22;571;50.930;6.926;2024-03-17T05:22:58;7.90;99.90
1165;DHT22;571;50.930;6.926;2024-03-17T05:25:25;7.90;99.90
1165;DHT22;571;50.930;6.926;2024-03-17T05:27:51;7.90;99.90
1165;DHT22;571;50.930;6.926;2024-03-17T05:30:19;7.80;99.90
1165;DHT22;571;50.930;6.926;2024-03-17T05:32:46;7.80;99.90
1165;DHT22;571;50.930;6.926;2024-03-17T05:35:13;7.70;99.90
1165;DHT22;571;50.930;6.926;2024-03-17T05:37:40;7.70;99.90
1165;DHT22;571;50.930;6.926;2024-03-17T05:40:10;7.70;99.90
1165;DHT22;571;50.930;6.926;2024-03-17T05:42:38;7.70;99.90
1165;DHT22;571;50.930;6.926;2024-03-17T05:45:08;7.70;99.90
1165;DHT22;571;50.930;6.926;2024-03-17T05:47:38;7.70;99.90
1165;DHT22;571;50.930;6.926;2024-03-17T05:50:07;7.70;99.90
1165;DHT22;571;50.930;6.926;2024-03-17T05:52:34;7.70;99.90
1165;DHT22;571;50.930;6.926;2024-03-17T05:55:01;7.70;99.90
1165;DHT22;571;50.930;6.926;2024-03-17T05:57:28;7.70;99.90
1165;DHT22;571;50.930;6.926;2024-03-17T05:59:55;7.70;99.90
1165;DHT22;571;50.930;6.926;2024-03-17T06:02:21;7.70;99.90
1165;DHT22;571;50.930;6.926;2024-03-17T06:04:50;7.70;99.90
1165;DHT22;571;50.930;6.926;2024-03-17T06:07:17;7.70;99.90
1165;DHT22;571;50.930;6.926;2024-03-17T06:09:44;7.70;99.90
1165;DHT22;571;50.930;6.926;2024-03-17T06:12:13;7.70;99.90
1165;DHT22;571;50.930;6.926;2024-03-17T06:14:39;7.70;99.90
1165;DHT22;571;50.930;6.926;2024-03-17T06:17:06;7.70;99.90
1165;DHT22;571;50.930;6.926;2024-03-17T06:19:33;7.70;99.90
1165;DHT22;571;50.930;6.926;2024-03-17T06:22:02;7.70;99.90
1165;DHT22;571;50.930;6.926;2024-03-17T06:24:30;7.70;99.90
1165;DHT22;571;50.930;6.926;2024-03-17T06:26:57;7.60;99.90
1165;DHT22;571;50.930;6.926;2024-03-17T06:29:24;7.70;99.90
1165;DHT22;571;50.930;6.926;2024-03-17T06:31:51;7.60;99.90
1165;DHT22;571;50.930;6.926;2024-03-17T06:34:18;7.70;99.90
1165;DHT22;571;50.930;6.926;2024-03-17T06:36:44;7.70;99.90
1165;DHT22;571;50.930;6.926;2024-03-17T06:39:15;7.70;99.90
1165;DHT22;571;50.930;6.926;2024-03-17T06:41:42;7.80;99.90
1165;DHT22;571;50.930;6.926;2024-03-17T06:44:08;7.80;99.90
1165;DHT22;571;50.930;6.926;2024-03-17T06:46:35;7.80;99.90
1165;DHT22;571;50.930;6.926;2024-03-17T06:49:02;7.80;99.90
1165;DHT22;571;50.930;6.926;2024-03-17T06:51:29;7.80;99.90
1165;DHT22;571;50.930;6.926;2024-03-17T06:53:56;7.90;99.90
1165;DHT22;571;50.930;6.926;2024-03-17T06:56:24;7.90;99.90
1165;DHT22;571;50.930;6.926;2024-03-17T06:58:50;8.00;99.90
1165;DHT22;571;50.930;6.926;2024-03-17T07:01:19;8.00;99.90
1165;DHT22;571;50.930;6.926;2024-03-17T07:03:46;8.00;99.90
1165;DHT22;571;50.930;6.926;2024-03-17T07:06:12;8.10;99.90
1165;DHT22;571;50.930;6.926;2024-03-17T07:08:39;8.10;99.90
1165;DHT22;571;50.930;6.926;2024-03-17T07:11:08;8.10;99.90
1165;DHT22;571;50.930;6.926;2024-03-17T07:13:37;8.20;99.90
1165;DHT22;571;50.930;6.926;2024-03-17T07:16:05;8.20;99.90
1165;DHT22;571;50.930;6.926;2024-03-17T07:18:33;8.30;99.90
1165;DHT22;571;50.930;6.926;2024-03-17T07:21:00;8.30;99.90
1165;DHT22;571;50.930;6.926;2024-03-17T07:23:30;8.30;99.90
1165;DHT22;571;50.930;6.926;2024-03-17T07:25:58;8.40;99.90
1165;DHT22;571;50.930;6.926;2024-03-17T07:28:25;8.50;99.90
1165;DHT22;571;50.930;6.926;2024-03-17T07:30:57;8.60;99.90
1165;DHT22;571;50.930;6.926;2024-03-17T07:33:26;8.70;99.90
1165;DHT22;571;50.930;6.926;2024-03-17T07:35:54;8.80;99.90
1165;DHT22;571;50.930;6.926;2024-03-17T07:38:23;8.80;99.90
1165;DHT22;571;50.930;6.926;2024-03-17T07:40:59;8.90;99.90
1165;DHT22;571;50.930;6.926;2024-03-17T07:43:27;9.00;99.90
1165;DHT22;571;50.930;6.926;2024-03-17T07:45:59;9.00;99.90
1165;DHT22;571;50.930;6.926;2024-03-17T07:48:26;9.00;99.90
1165;DHT22;571;50.930;6.926;2024-03-17T07:50:54;9.10;99.90
1165;DHT22;571;50.930;6.926;2024-03-17T07:53:21;9.20;99.90
1165;DHT22;571;50.930;6.926;2024-03-17T07:55:57;9.30;99.70
1165;DHT22;571;50.930;6.926;2024-03-17T07:58:24;9.30;99.60
1165;DHT22;571;50.930;6.926;2024-03-17T08:00:51;9.40;99.80
1165;DHT22;571;50.930;6.926;2024-03-17T08:03:19;9.40;99.80
1165;DHT22;571;50.930;6.926;2024-03-17T08:05:48;9.40;99.90
1165;DHT22;571;50.930;6.926;2024-03-17T08:08:15;9.50;99.90
1165;DHT22;571;50.930;6.926;2024-03-17T08:10:45;9.60;99.70
1165;DHT22;571;50.930;6.926;2024-03-17T08:13:40;9.70;99.60
1165;DHT22;571;50.930;6.926;2024-03-17T08:16:57;9.80;99.90
1165;DHT22;571;50.930;6.926;2024-03-17T08:19:48;9.90;99.90
1165;DHT22;571;50.930;6.926;2024-03-17T08:26:29;10.20;98.80
1165;DHT22;571;50.930;6.926;2024-03-17T08:42:22;10.70;98.60
1165;DHT22;571;50.930;6.926;2024-03-17T08:44:52;10.80;98.20
1165;DHT22;571;50.930;6.926;2024-03-17T08:47:21;11.00;97.40
1165;DHT22;571;50.930;6.926;2024-03-17T08:49:53;11.00;97.30
1165;DHT22;571;50.930;6.926;2024-03-17T08:52:23;11.10;97.00
1165;DHT22;571;50.930;6.926;2024-03-17T08:54:52;11.10;96.90
1165;DHT22;571;50.930;6.926;2024-03-17T08:57:20;11.20;97.00
1165;DHT22;571;50.930;6.926;2024-03-17T08:59:47;11.20;97.30
1165;DHT22;571;50.930;6.926;2024-03-17T09:02:14;11.30;97.10
1165;DHT22;571;50.930;6.926;2024-03-17T09:04:41;11.40;97.10
1165;DHT22;571;50.930;6.926;2024-03-17T09:07:08;11.50;96.70
1165;DHT22;571;50.930;6.926;2024-03-17T09:09:35;11.70;95.90
1165;DHT22;571;50.930;6.926;2024-03-17T09:12:01;11.70;96.20
1165;DHT22;571;50.930;6.926;2024-03-17T09:14:30;11.70;96.70
1165;DHT22;571;50.930;6.926;2024-03-17T09:16:57;11.70;96.50
1165;DHT22;571;50.930;6.926;2024-03-17T09:19:25;11.90;96.20
1165;DHT22;571;50.930;6.926;2024-03-17T09:21:51;11.90;96.00
1165;DHT22;571;50.930;6.926;2024-03-17T09:24:18;12.00;95.80
1165;DHT22;571;50.930;6.926;2024-03-17T09:26:45;12.00;95.30
1165;DHT22;571;50.930;6.926;2024-03-17T09:29:12;12.10;95.10
1165;DHT22;571;50.930;6.926;2024-03-17T09:31:42;12.10;95.30
1165;DHT22;571;50.930;6.926;2024-03-17T09:34:09;12.10;95.00
1165;DHT22;571;50.930;6.926;2024-03-17T09:36:35;12.10;95.80
1165;DHT22;571;50.930;6.926;2024-03-17T09:39:02;12.20;95.60
1165;DHT22;571;50.930;6.926;2024-03-17T09:41:30;12.30;95.80
1165;DHT22;571;50.930;6.926;2024-03-17T09:43:57;12.30;95.60
1165;DHT22;571;50.930;6.926;2024-03-17T09:46:26;12.40;95.80
1165;DHT22;571;50.930;6.926;2024-03-17T09:48:55;12.50;95.60
1165;DHT22;571;50.930;6.926;2024-03-17T09:51:25;12.60;95.80
1165;DHT22;571;50.930;6.926;2024-03-17T09:53:52;12.80;95.10
1165;DHT22;571;50.930;6.926;2024-03-17T09:56:20;13.00;94.10
1165;DHT22;571;50.930;6.926;2024-03-17T09:58:48;13.10;93.40
1165;DHT22;571;50.930;6.926;2024-03-17T10:01:15;13.10;93.20
1165;DHT22;571;50.930;6.926;2024-03-17T10:03:43;13.20;93.50
1165;DHT22;571;50.930;6.926;2024-03-17T10:06:13;13.20;93.90
1165;DHT22;571;50.930;6.926;2024-03-17T10:08:44;13.30;93.30
1165;DHT22;571;50.930;6.926;2024-03-17T10:11:12;13.40;93.90
1165;DHT22;571;50.930;6.926;2024-03-17T10:13:39;13.50;94.20
1165;DHT22;571;50.930;6.926;2024-03-17T10:16:06;13.60;92.90
1165;DHT22;571;50.930;6.926;2024-03-17T10:18:32;13.80;92.40
1165;DHT22;571;50.930;6.926;2024-03-17T10:21:00;13.70;93.00
1165;DHT22;571;50.930;6.926;2024-03-17T10:23:28;13.80;93.10
1165;DHT22;571;50.930;6.926;2024-03-17T10:25:55;13.80;92.70
1165;DHT22;571;50.930;6.926;2024-03-17T10:28:22;13.80;93.20
1165;DHT22;571;50.930;6.926;2024-03-17T10:30:58;13.80;92.00
1165;DHT22;571;50.930;6.926;2024-03-17T10:33:26;14.00;92.80
1165;DHT22;571;50.930;6.926;2024-03-17T10:35:59;14.20;91.70
1165;DHT22;571;50.930;6.926;2024-03-17T10:38:28;14.30;91.60
1165;DHT22;571;50.930;6.926;2024-03-17T10:40:55;14.30;92.30
1165;DHT22;571;50.930;6.926;2024-03-17T10:43:22;14.30;92.00
1165;DHT22;571;50.930;6.926;2024-03-17T10:45:52;14.30;92.10
1165;DHT22;571;50.930;6.926;2024-03-17T10:48:20;14.30;92.80
1165;DHT22;571;50.930;6.926;2024-03-17T10:50:48;14.50;91.60
1165;DHT22;571;50.930;6.926;2024-03-17T10:53:19;14.50;91.80
1165;DHT22;571;50.930;6.926;2024-03-17T10:56:00;14.70;92.10
1165;DHT22;571;50.930;6.926;2024-03-17T10:58:33;14.80;91.40
1165;DHT22;571;50.930;6.926;2024-03-17T11:01:01;14.90;91.40
1165;DHT22;571;50.930;6.926;2024-03-17T11:03:34;15.00;90.80
1165;DHT22;571;50.930;6.926;2024-03-17T11:06:02;15.00;90.30
1165;DHT22;571;50.930;6.926;2024-03-17T11:08:31;15.00;90.50
1165;DHT22;571;50.930;6.926;2024-03-17T11:11:00;15.00;90.40
1165;DHT22;571;50.930;6.926;2024-03-17T11:13:30;15.00;91.30
1165;DHT22;571;50.930;6.926;2024-03-17T11:15:58;15.10;91.50
1165;DHT22;571;50.930;6.926;2024-03-17T11:18:35;15.20;90.20
1165;DHT22;571;50.930;6.926;2024-03-17T11:21:03;15.30;91.90
1165;DHT22;571;50.930;6.926;2024-03-17T11:23:36;15.50;92.00
1165;DHT22;571;50.930;6.926;2024-03-17T11:26:06;15.70;91.10
1165;DHT22;571;50.930;6.926;2024-03-17T11:28:48;15.90;90.70
1165;DHT22;571;50.930;6.926;2024-03-17T11:31:33;16.20;88.80
1165;DHT22;571;50.930;6.926;2024-03-17T11:34:01;16.40;90.00
1165;DHT22;571;50.930;6.926;2024-03-17T11:36:37;16.60;89.20
1165;DHT22;571;50.930;6.926;2024-03-17T11:39:05;16.70;86.20
1165;DHT22;571;50.930;6.926;2024-03-17T11:41:43;16.80;87.10
1165;DHT22;571;50.930;6.926;2024-03-17T11:44:30;16.90;85.50
1165;DHT22;571;50.930;6.926;2024-03-17T11:46:59;16.90;84.50
1165;DHT22;571;50.930;6.926;2024-03-17T11:49:27;17.00;86.80
1165;DHT22;571;50.930;6.926;2024-03-17T11:51:55;17.10;86.00
1165;DHT22;571;50.930;6.926;2024-03-17T11:54:22;17.10;84.80
1165;DHT22;571;50.930;6.926;2024-03-17T11:56:52;17.10;84.50
1165;DHT22;571;50.930;6.926;2024-03-17T11:59:18;17.10;84.30
1165;DHT22;571;50.930;6.926;2024-03-17T12:01:46;17.10;84.80
1165;DHT22;571;50.930;6.926;2024-03-17T12:04:13;17.00;85.20
1165;DHT22;571;50.930;6.926;2024-03-17T12:06:44;17.00;85.10
1165;DHT22;571;50.930;6.926;2024-03-17T12:09:18;16.90;85.70
1165;DHT22;571;50.930;6.926;2024-03-17T12:11:47;16.90;85.60
1165;DHT22;571;50.930;6.926;2024-03-17T12:14:18;17.00;84.30
1165;DHT22;571;50.930;6.926;2024-03-17T12:16:51;16.90;85.30
1165;DHT22;571;50.930;6.926;2024-03-17T12:19:18;16.80;82.90
1165;DHT22;571;50.930;6.926;2024-03-17T12:21:45;16.80;85.30
1165;DHT22;571;50.930;6.926;2024-03-17T12:24:17;16.70;85.50
1165;DHT22;571;50.930;6.926;2024-03-17T12:26:44;16.60;85.20
1165;DHT22;571;50.930;6.926;2024-03-17T12:29:26;16.60;83.90
1165;DHT22;571;50.930;6.926;2024-03-17T12:31:54;16.60;85.50
1165;DHT22;571;50.930;6.926;2024-03-17T12:34:22;16.60;85.60
1165;DHT22;571;50.930;6.926;2024-03-17T12:36:50;16.60;85.50
1165;DHT22;571;50.930;6.926;2024-03-17T12:39:19;16.60;84.70
1165;DHT22;571;50.930;6.926;2024-03-17T12:41:45;16.60;86.60
1165;DHT22;571;50.930;6.926;2024-03-17T12:44:22;16.50;88.00
1165;DHT22;571;50.930;6.926;2024-03-17T12:46:54;16.60;86.60
1165;DHT22;571;50.930;6.926;2024-03-17T12:49:20;16.70;85.00
1165;DHT22;571;50.930;6.926;2024-03-17T12:51:47;16.60;85.40
1165;DHT22;571;50.930;6.926;2024-03-17T12:54:14;16.60;87.30
1165;DHT22;571;50.930;6.926;2024-03-17T12:56:43;16.70;87.10
1165;DHT22;571;50.930;6.926;2024-03-17T12:59:37;16.70;88.10
1165;DHT22;571;50.930;6.926;2024-03-17T13:02:22;16.80;86.00
1165;DHT22;571;50.930;6.926;2024-03-17T13:05:14;16.80;86.00
1165;DHT22;571;50.930;6.926;2024-03-17T13:07:42;16.90;84.80
1165;DHT22;571;50.930;6.926;2024-03-17T13:10:12;16.90;83.60
1165;DHT22;571;50.930;6.926;2024-03-17T13:12:39;16.80;84.50
1165;DHT22;571;50.930;6.926;2024-03-17T13:15:08;16.70;84.30
1165;DHT22;571;50.930;6.926;2024-03-17T13:17:36;16.70;85.60
1165;DHT22;571;50.930;6.926;2024-03-17T13:20:04;16.70;85.90
1165;DHT22;571;50.930;6.926;2024-03-17T13:22:34;16.60;85.10
1165;DHT22;571;50.930;6.926;2024-03-17T13:25:01;16.60;86.10
1165;DHT22;571;50.930;6.926;2024-03-17T13:27:28;16.50;84.50
1165;DHT22;571;50.930;6.926;2024-03-17T13:32:34;16.50;86.00
1165;DHT22;571;50.930;6.926;2024-03-17T13:43:41;16.30;86.60
1165;DHT22;571;50.930;6.926;2024-03-17T13:46:11;16.30;85.60
1165;DHT22;571;50.930;6.926;2024-03-17T13:48:43;16.30;86.10
1165;DHT22;571;50.930;6.926;2024-03-17T13:51:20;16.20;86.00
1165;DHT22;571;50.930;6.926;2024-03-17T13:54:10;16.10;85.90
1165;DHT22;571;50.930;6.926;2024-03-17T13:57:00;16.10;86.30
1165;DHT22;571;50.930;6.926;2024-03-17T13:59:29;16.10;86.70
1165;DHT22;571;50.930;6.926;2024-03-17T14:02:23;16.00;87.50
1165;DHT22;571;50.930;6.926;2024-03-17T14:05:04;16.00;87.50
1165;DHT22;571;50.930;6.926;2024-03-17T14:10:38;16.10;86.30
1165;DHT22;571;50.930;6.926;2024-03-17T14:13:11;16.10;86.20
1165;DHT22;571;50.930;6.926;2024-03-17T14:15:38;16.10;87.10
1165;DHT22;571;50.930;6.926;2024-03-17T14:18:05;16.10;86.30
1165;DHT22;571;50.930;6.926;2024-03-17T14:20:37;16.10;86.70
1165;DHT22;571;50.930;6.926;2024-03-17T14:23:09;16.10;87.40
1165;DHT22;571;50.930;6.926;2024-03-17T14:25:36;16.20;87.60
1165;DHT22;571;50.930;6.926;2024-03-17T14:28:06;16.30;87.10
1165;DHT22;571;50.930;6.926;2024-03-17T14:30:35;16.30;85.70
1165;DHT22;571;50.930;6.926;2024-03-17T14:33:02;16.40;87.80
1165;DHT22;571;50.930;6.926;2024-03-17T14:35:35;16.60;85.70
1165;DHT22;571;50.930;6.926;2024-03-17T14:38:11;16.70;86.80
1165;DHT22;571;50.930;6.926;2024-03-17T14:40:47;16.80;87.00
1165;DHT22;571;50.930;6.926;2024-03-17T14:43:33;17.00;86.60
1165;DHT22;571;50.930;6.926;2024-03-17T14:46:08;17.20;86.80
1165;DHT22;571;50.930;6.926;2024-03-17T14:48:41;17.40;85.30
1165;DHT22;571;50.930;6.926;2024-03-17T14:51:17;17.60;85.30
1165;DHT22;571;50.930;6.926;2024-03-17T14:53:44;17.80;83.60
1165;DHT22;571;50.930;6.926;2024-03-17T14:56:17;18.10;83.30
1165;DHT22;571;50.930;6.926;2024-03-17T14:58:44;18.60;83.90
1165;DHT22;571;50.930;6.926;2024-03-17T15:01:16;19.20;81.50
1165;DHT22;571;50.930;6.926;2024-03-17T15:03:43;19.50;79.00
1165;DHT22;571;50.930;6.926;2024-03-17T15:06:13;19.70;77.80
1165;DHT22;571;50.930;6.926;2024-03-17T15:08:44;19.80;77.40
1165;DHT22;571;50.930;6.926;2024-03-17T15:11:11;19.80;75.90
1165;DHT22;571;50.930;6.926;2024-03-17T15:13:41;19.70;76.60
1165;DHT22;571;50.930;6.926;2024-03-17T15:16:09;19.50;75.20
1165;DHT22;571;50.930;6.926;2024-03-17T15:18:38;19.40;75.40
1165;DHT22;571;50.930;6.926;2024-03-17T15:21:09;19.10;74.80
1165;DHT22;571;50.930;6.926;2024-03-17T15:23:39;19.00;75.30
1165;DHT22;571;50.930;6.926;2024-03-17T15:26:09;18.80;77.20
1165;DHT22;571;50.930;6.926;2024-03-17T15:28:43;18.60;76.20
1165;DHT22;571;50.930;6.926;2024-03-17T15:31:13;18.50;76.90
1165;DHT22;571;50.930;6.926;2024-03-17T15:33:42;18.30;77.10
1165;DHT22;571;50.930;6.926;2024-03-17T15:39:13;17.90;77.30
1165;DHT22;571;50.930;6.926;2024-03-17T15:41:40;17.70;78.80
1165;DHT22;571;50.930;6.926;2024-03-17T15:44:09;17.50;79.20
1165;DHT22;571;50.930;6.926;2024-03-17T15:46:36;17.40;79.90
1165;DHT22;571;50.930;6.926;2024-03-17T15:49:04;17.30;80.10
1165;DHT22;571;50.930;6.926;2024-03-17T15:51:31;17.20;80.80
1165;DHT22;571;50.930;6.926;2024-03-17T15:53:58;17.20;81.90
1165;DHT22;571;50.930;6.926;2024-03-17T15:56:24;17.20;83.70
1165;DHT22;571;50.930;6.926;2024-03-17T15:58:52;17.30;82.80
1165;DHT22;571;50.930;6.926;2024-03-17T16:01:19;17.30;81.70
1165;DHT22;571;50.930;6.926;2024-03-17T16:03:45;17.30;81.80
1165;DHT22;571;50.930;6.926;2024-03-17T16:06:17;17.20;82.60
1165;DHT22;571;50.930;6.926;2024-03-17T16:08:46;17.20;83.00
1165;DHT22;571;50.930;6.926;2024-03-17T16:11:16;17.20;83.10
1165;DHT22;571;50.930;6.926;2024-03-17T16:13:44;17.10;83.20
1165;DHT22;571;50.930;6.926;2024-03-17T16:16:15;17.10;83.10
1165;DHT22;571;50.930;6.926;2024-03-17T16:18:42;17.10;83.40
1165;DHT22;571;50.930;6.926;2024-03-17T16:21:12;17.10;83.70
1165;DHT22;571;50.930;6.926;2024-03-17T16:23:48;17.10;83.30
1165;DHT22;571;50.930;6.926;2024-03-17T16:26:15;17.10;84.40
1165;DHT22;571;50.930;6.926;2024-03-17T16:28:42;17.00;84.80
1165;DHT22;571;50.930;6.926;2024-03-17T16:31:09;17.00;83.80
1165;DHT22;571;50.930;6.926;2024-03-17T16:33:36;16.90;83.30
1165;DHT22;571;50.930;6.926;2024-03-17T16:36:04;16.80;83.60
1165;DHT22;571;50.930;6.926;2024-03-17T16:38:33;16.70;84.50
1165;DHT22;571;50.930;6.926;2024-03-17T16:41:28;16.60;84.80
1165;DHT22;571;50.930;6.926;2024-03-17T17:05:55;16.10;87.80
1165;DHT22;571;50.930;6.926;2024-03-17T17:08:21;16.00;88.40
1165;DHT22;571;50.930;6.926;2024-03-17T17:10:48;16.00;88.70
1165;DHT22;571;50.930;6.926;2024-03-17T17:13:15;15.90;88.70
1165;DHT22;571;50.930;6.926;2024-03-17T17:15:41;15.80;88.60
1165;DHT22;571;50.930;6.926;2024-03-17T17:18:47;15.80;89.50
1165;DHT22;571;50.930;6.926;2024-03-17T17:21:17;15.70;89.60
1165;DHT22;571;50.930;6.926;2024-03-17T17:23:44;15.60;90.00
1165;DHT22;571;50.930;6.926;2024-03-17T17:26:15;15.60;90.20
1165;DHT22;571;50.930;6.926;2024-03-17T17:28:42;15.50;90.10
1165;DHT22;571;50.930;6.926;2024-03-17T17:31:09;15.40;90.50
1165;DHT22;571;50.930;6.926;2024-03-17T17:33:36;15.40;90.80
1165;DHT22;571;50.930;6.926;2024-03-17T17:36:07;15.30;91.00
1165;DHT22;571;50.930;6.926;2024-03-17T17:38:35;15.30;90.80
1165;DHT22;571;50.930;6.926;2024-03-17T17:41:03;15.30;90.90
1165;DHT22;571;50.930;6.926;2024-03-17T17:43:36;15.20;90.80
1165;DHT22;571;50.930;6.926;2024-03-17T17:46:05;15.20;90.80
1165;DHT22;571;50.930;6.926;2024-03-17T17:48:32;15.10;90.60
1165;DHT22;571;50.930;6.926;2024-03-17T17:51:01;15.10;89.90
1165;DHT22;571;50.930;6.926;2024-03-17T17:53:28;15.00;90.20
1165;DHT22;571;50.930;6.926;2024-03-17T17:55:56;15.00;90.20
1165;DHT22;571;50.930;6.926;2024-03-17T17:58:25;15.00;90.00
1165;DHT22;571;50.930;6.926;2024-03-17T18:00:58;15.00;89.60
1165;DHT22;571;50.930;6.926;2024-03-17T18:03:25;14.90;89.30
1165;DHT22;571;50.930;6.926;2024-03-17T18:05:52;14.90;87.20
1165;DHT22;571;50.930;6.926;2024-03-17T18:08:19;14.90;85.90
1165;DHT22;571;50.930;6.926;2024-03-17T18:10:46;14.90;86.60
1165;DHT22;571;50.930;6.926;2024-03-17T18:13:14;14.80;87.70
1165;DHT22;571;50.930;6.926;2024-03-17T18:15:41;14.80;87.00
1165;DHT22;571;50.930;6.926;2024-03-17T18:18:09;14.80;87.20
1165;DHT22;571;50.930;6.926;2024-03-17T18:20:36;14.80;86.10
1165;DHT22;571;50.930;6.926;2024-03-17T18:23:02;14.70;87.50
1165;DHT22;571;50.930;6.926;2024-03-17T18:25:30;14.60;88.20
1165;DHT22;571;50.930;6.926;2024-03-17T18:27:58;14.70;87.70
1165;DHT22;571;50.930;6.926;2024-03-17T18:30:28;14.60;86.50
1165;DHT22;571;50.930;6.926;2024-03-17T18:32:55;14.60;87.40
1165;DHT22;571;50.930;6.926;2024-03-17T18:35:23;14.60;87.10
1165;DHT22;571;50.930;6.926;2024-03-17T18:37:50;14.60;87.50
1165;DHT22;571;50.930;6.926;2024-03-17T18:40:17;14.50;87.20
1165;DHT22;571;50.930;6.926;2024-03-17T18:42:46;14.40;87.90
1165;DHT22;571;50.930;6.926;2024-03-17T18:48:02;14.50;87.90
1165;DHT22;571;50.930;6.926;2024-03-17T18:50:32;14.40;87.50
1165;DHT22;571;50.930;6.926;2024-03-17T18:52:59;14.30;88.30
1165;DHT22;571;50.930;6.926;2024-03-17T18:55:26;14.40;88.60
1165;DHT22;571;50.930;6.926;2024-03-17T18:57:53;14.40;89.30
1165;DHT22;571;50.930;6.926;2024-03-17T19:00:20;14.40;89.60
1165;DHT22;571;50.930;6.926;2024-03-17T19:02:47;14.30;90.20
1165;DHT22;571;50.930;6.926;2024-03-17T19:05:16;14.30;91.60
1165;DHT22;571;50.930;6.926;2024-03-17T19:07:43;14.30;92.50
1165;DHT22;571;50.930;6.926;2024-03-17T19:10:11;14.20;93.30
1165;DHT22;571;50.930;6.926;2024-03-17T19:12:38;14.20;93.80
1165;DHT22;571;50.930;6.926;2024-03-17T19:15:06;14.10;94.20
1165;DHT22;571;50.930;6.926;2024-03-17T19:17:33;14.10;94.70
1165;DHT22;571;50.930;6.926;2024-03-17T19:20:01;14.00;95.00
1165;DHT22;571;50.930;6.926;2024-03-17T19:22:37;14.10;94.00
1165;DHT22;571;50.930;6.926;2024-03-17T19:25:04;14.00;94.80
1165;DHT22;571;50.930;6.926;2024-03-17T19:27:33;13.90;95.40
1165;DHT22;571;50.930;6.926;2024-03-17T19:30:00;13.90;95.30
1165;DHT22;571;50.930;6.926;2024-03-17T19:32:29;13.80;95.20
1165;DHT22;571;50.930;6.926;2024-03-17T19:34:56;13.80;94.90
1165;DHT22;571;50.930;6.926;2024-03-17T19:37:23;13.80;94.80
1165;DHT22;571;50.930;6.926;2024-03-17T19:39:51;13.80;95.00
1165;DHT22;571;50.930;6.926;2024-03-17T19:42:18;13.70;94.80
1165;DHT22;571;50.930;6.926;2024-03-17T19:44:46;13.70;94.90
1165;DHT22;571;50.930;6.926;2024-03-17T19:47:13;13.70;94.80
1165;DHT22;571;50.930;6.926;2024-03-17T19:49:43;13.70;94.50
1165;DHT22;571;50.930;6.926;2024-03-17T19:52:13;13.90;94.20
1165;DHT22;571;50.930;6.926;2024-03-17T19:54:39;13.80;94.20
1165;DHT22;571;50.930;6.926;2024-03-17T19:57:07;13.90;93.80
1165;DHT22;571;50.930;6.926;2024-03-17T19:59:35;13.80;93.10
1165;DHT22;571;50.930;6.926;2024-03-17T20:02:02;13.80;93.40
1165;DHT22;571;50.930;6.926;2024-03-17T20:04:29;13.70;93.60
1165;DHT22;571;50.930;6.926;2024-03-17T20:06:56;13.70;93.80
1165;DHT22;571;50.930;6.926;2024-03-17T20:09:23;13.70;93.90
1165;DHT22;571;50.930;6.926;2024-03-17T20:11:55;13.60;93.80
1165;DHT22;571;50.930;6.926;2024-03-17T20:14:23;13.60;93.90
1165;DHT22;571;50.930;6.926;2024-03-17T20:16:50;13.60;94.40
1165;DHT22;571;50.930;6.926;2024-03-17T20:19:27;13.60;94.40
1165;DHT22;571;50.930;6.926;2024-03-17T20:21:56;13.70;94.40
1165;DHT22;571;50.930;6.926;2024-03-17T20:24:23;13.70;94.30
1165;DHT22;571;50.930;6.926;2024-03-17T20:26:50;13.70;94.30
1165;DHT22;571;50.930;6.926;2024-03-17T20:29:16;13.70;94.40
1165;DHT22;571;50.930;6.926;2024-03-17T20:31:46;13.60;94.60
1165;DHT22;571;50.930;6.926;2024-03-17T20:34:15;13.60;94.80
1165;DHT22;571;50.930;6.926;2024-03-17T20:36:42;13.60;94.60
1165;DHT22;571;50.930;6.926;2024-03-17T20:39:09;13.60;94.80
1165;DHT22;571;50.930;6.926;2024-03-17T20:41:41;13.60;94.80
1165;DHT22;571;50.930;6.926;2024-03-17T20:44:10;13.60;94.50
1165;DHT22;571;50.930;6.926;2024-03-17T20:46:37;13.60;94.60
1165;DHT22;571;50.930;6.926;2024-03-17T20:49:05;13.60;94.90
1165;DHT22;571;50.930;6.926;2024-03-17T20:51:32;13.60;94.80
1165;DHT22;571;50.930;6.926;2024-03-17T20:53:58;13.50;95.30
1165;DHT22;571;50.930;6.926;2024-03-17T20:56:25;13.50;95.30
1165;DHT22;571;50.930;6.926;2024-03-17T20:58:52;13.50;95.20
1165;DHT22;571;50.930;6.926;2024-03-17T21:01:19;13.50;95.50
1165;DHT22;571;50.930;6.926;2024-03-17T21:03:46;13.50;95.60
1165;DHT22;571;50.930;6.926;2024-03-17T21:06:14;13.50;95.30
1165;DHT22;571;50.930;6.926;2024-03-17T21:08:41;13.60;95.20
1165;DHT22;571;50.930;6.926;2024-03-17T21:11:08;13.50;95.50
1165;DHT22;571;50.930;6.926;2024-03-17T21:13:35;13.50;95.60
1165;DHT22;571;50.930;6.926;2024-03-17T21:16:02;13.50;95.40
1165;DHT22;571;50.930;6.926;2024-03-17T21:18:29;13.60;95.50
1165;DHT22;571;50.930;6.926;2024-03-17T21:21:01;13.60;95.60